Time;durP1;ratioP1;P1;durP2;ratioP2;P2;SDS_P1;SDS_P2;PMS_P1;PMS_P2;Temp;Humidity;BMP_temperature;BMP_pressure;BME280_temperature;BME280_humidity;BME280_pressure;Samples;Min_cycle;Max_cycle;Signal;HPM_P1;HPM_P2
2023/07/06 00:00:52;;;;;;;20.63;18.98;;;;;;;20.89;54.06;100173.34;4973255;28;97386;-77
2023/07/06 00:03:18;;;;;;;20.17;18.58;;;;;;;20.89;54.13;100182.19;4956596;28;98750;-77
2023/07/06 00:05:44;;;;;;;21.40;19.45;;;;;;;20.75;54.26;100172.59;4962529;28;98749;-77
2023/07/06 00:08:14;;;;;;;21.08;19.08;;;;;;;20.80;54.12;100183.75;4958832;28;97460;-77
2023/07/06 00:10:42;;;;;;;20.42;18.83;;;;;;;20.66;53.92;100165.31;4981610;28;96971;-77
2023/07/06 00:13:08;;;;;;;20.70;18.77;;;;;;;20.72;54.18;100188.00;4973346;28;99185;-77
2023/07/06 00:15:34;;;;;;;21.50;19.90;;;;;;;20.68;53.92;100176.72;4973194;28;98467;-77
2023/07/06 00:18:03;;;;;;;20.75;19.02;;;;;;;20.68;53.61;100183.84;4976754;28;96761;-77
2023/07/06 00:20:40;;;;;;;20.25;18.70;;;;;;;20.70;53.61;100198.75;4974575;28;96970;-77
2023/07/06 00:23:10;;;;;;;20.65;18.92;;;;;;;20.70;53.63;100204.09;4970650;28;98594;-77
2023/07/06 00:25:36;;;;;;;20.70;18.67;;;;;;;20.61;53.43;100202.16;4984864;28;98929;-77
2023/07/06 00:28:03;;;;;;;21.63;19.73;;;;;;;20.63;53.46;100199.38;4960960;28;96989;-77
2023/07/06 00:33:15;;;;;;;21.23;18.90;;;;;;;20.58;53.18;100205.06;4978238;28;100390;-77
2023/07/06 00:35:41;;;;;;;20.53;18.90;;;;;;;20.40;53.00;100188.66;4966724;28;100814;-77
2023/07/06 00:38:10;;;;;;;21.90;19.67;;;;;;;20.41;53.09;100189.50;4977377;28;97387;-77
2023/07/06 00:40:42;;;;;;;21.10;19.48;;;;;;;20.42;53.09;100197.38;4967122;28;96916;-79
2023/07/06 00:43:12;;;;;;;20.85;19.27;;;;;;;20.40;52.59;100183.31;4973929;28;99231;-77
2023/07/06 00:45:38;;;;;;;19.70;18.00;;;;;;;20.48;52.61;100209.41;4971711;28;98011;-77
2023/07/06 00:48:06;;;;;;;19.60;18.30;;;;;;;20.47;52.24;100200.53;4972727;28;96789;-77
2023/07/06 00:50:32;;;;;;;20.63;19.15;;;;;;;20.46;52.17;100192.66;4971976;28;96988;-77
2023/07/06 00:53:02;;;;;;;21.00;19.27;;;;;;;20.45;52.05;100198.94;4972814;28;98465;-77
2023/07/06 00:55:32;;;;;;;21.08;19.17;;;;;;;20.41;52.22;100205.47;4986016;28;98846;-77
2023/07/06 00:58:02;;;;;;;20.38;18.65;;;;;;;20.36;52.14;100200.50;4964865;28;96768;-77
2023/07/06 01:00:28;;;;;;;21.23;19.55;;;;;;;20.32;52.05;100215.88;4980234;28;97322;-77
2023/07/06 01:02:57;;;;;;;19.13;17.55;;;;;;;20.25;52.05;100200.50;4957926;28;98941;-79
2023/07/06 01:05:24;;;;;;;21.08;19.55;;;;;;;20.24;51.95;100209.44;4974443;28;98817;-77
2023/07/06 01:07:51;;;;;;;20.60;18.95;;;;;;;20.13;52.30;100205.78;4968844;28;96839;-77
2023/07/06 01:10:17;;;;;;;21.35;19.85;;;;;;;20.17;52.38;100217.06;4972925;28;97600;-77
2023/07/06 01:12:43;;;;;;;20.67;18.73;;;;;;;20.14;52.26;100219.94;4954568;28;98987;-77
2023/07/06 01:15:09;;;;;;;21.38;19.58;;;;;;;20.07;52.49;100222.25;4968176;28;98608;-78
2023/07/06 01:17:53;;;;;;;20.00;18.50;;;;;;;20.08;52.76;100226.59;4963394;28;96826;-78
2023/07/06 01:21:06;;;;;;;21.23;19.52;;;;;;;20.07;52.68;100224.91;4972062;28;96760;-76
2023/07/06 01:23:43;;;;;;;21.80;19.83;;;;;;;20.08;52.76;100236.41;4940430;28;98872;-77
2023/07/06 01:26:20;;;;;;;20.05;18.33;;;;;;;20.05;52.77;100237.47;4972203;28;97668;-79
2023/07/06 01:29:09;;;;;;;20.10;18.30;;;;;;;19.99;52.76;100226.44;4960520;28;96674;-78
2023/07/06 01:31:50;;;;;;;20.60;18.95;;;;;;;19.95;52.85;100230.28;4969494;28;98240;-78
2023/07/06 01:34:41;;;;;;;20.90;19.38;;;;;;;19.87;53.09;100231.72;4948751;28;99082;-78
2023/07/06 01:37:17;;;;;;;21.23;18.88;;;;;;;19.79;53.46;100223.44;4969795;28;97755;-78
2023/07/06 01:39:43;;;;;;;22.38;20.17;;;;;;;19.75;53.46;100221.97;4965493;28;96924;-78
2023/07/06 01:42:08;;;;;;;21.95;19.83;;;;;;;19.80;53.63;100226.94;4962588;28;96870;-78
2023/07/06 01:44:35;;;;;;;20.65;18.98;;;;;;;19.68;53.57;100210.06;4968408;28;98946;-78
2023/07/06 01:47:03;;;;;;;20.40;18.55;;;;;;;19.65;53.62;100226.25;4955286;28;100271;-78
2023/07/06 01:49:29;;;;;;;21.20;19.63;;;;;;;19.62;53.78;100221.97;4973499;28;97248;-78
2023/07/06 01:52:24;;;;;;;20.77;19.10;;;;;;;19.60;53.93;100217.72;4963454;28;97059;-78
2023/07/06 01:55:17;;;;;;;20.20;18.60;;;;;;;19.62;53.81;100219.31;4973017;28;98926;-78
2023/07/06 01:58:00;;;;;;;20.08;18.58;;;;;;;19.58;53.62;100219.66;4972270;28;98919;-77
2023/07/06 02:00:27;;;;;;;19.95;18.38;;;;;;;19.56;53.36;100222.44;4972082;28;97763;-78
2023/07/06 02:02:53;;;;;;;21.20;19.38;;;;;;;19.57;53.02;100221.47;4987808;28;96895;-78
2023/07/06 02:05:22;;;;;;;20.50;18.52;;;;;;;19.58;52.82;100225.00;4962786;28;98808;-78
2023/07/06 02:07:49;;;;;;;21.35;19.50;;;;;;;19.50;52.70;100214.91;4974780;28;98753;-79
2023/07/06 02:10:17;;;;;;;20.10;18.50;;;;;;;19.56;53.05;100235.75;4971682;28;96890;-78
2023/07/06 02:12:47;;;;;;;20.13;18.60;;;;;;;19.54;53.31;100234.16;4969888;28;96879;-78
2023/07/06 02:15:16;;;;;;;21.02;19.25;;;;;;;19.50;53.30;100230.88;4966375;28;98983;-78
2023/07/06 02:17:43;;;;;;;20.92;18.85;;;;;;;19.31;53.37;100206.53;4981468;28;99026;-78
2023/07/06 02:20:11;;;;;;;21.20;19.58;;;;;;;19.37;53.31;100235.38;4977084;28;96754;-78
2023/07/06 02:22:37;;;;;;;20.70;19.05;;;;;;;19.31;53.29;100218.03;4972069;28;97518;-78
2023/07/06 02:25:03;;;;;;;20.75;19.08;;;;;;;19.31;53.16;100219.84;4966910;28;98838;-78
2023/07/06 02:27:30;;;;;;;21.33;19.02;;;;;;;19.40;52.96;100243.13;4984188;28;98696;-78
2023/07/06 02:29:55;;;;;;;20.50;18.98;;;;;;;19.39;52.93;100241.44;4978028;28;97341;-78
2023/07/06 02:32:21;;;;;;;20.70;19.20;;;;;;;19.32;52.75;100232.19;4965980;28;96613;-78
2023/07/06 02:34:46;;;;;;;22.35;19.10;;;;;;;19.29;52.94;100232.44;4971858;28;98739;-78
2023/07/06 02:37:12;;;;;;;21.13;19.30;;;;;;;19.28;52.79;100236.88;4975339;28;97270;-77
2023/07/06 02:39:38;;;;;;;20.98;19.20;;;;;;;19.25;52.77;100244.22;4968506;28;97958;-78
2023/07/06 02:42:04;;;;;;;22.48;20.23;;;;;;;19.13;53.21;100238.81;4969031;28;96831;-79
2023/07/06 02:44:30;;;;;;;20.90;19.08;;;;;;;19.11;53.40;100245.19;4967139;28;98797;-78
2023/07/06 02:46:55;;;;;;;20.48;18.92;;;;;;;19.10;53.45;100239.03;4975839;28;97621;-78
2023/07/06 02:49:21;;;;;;;21.55;19.58;;;;;;;19.21;53.41;100259.56;4972265;28;97371;-78
2023/07/06 02:51:47;;;;;;;22.15;20.20;;;;;;;19.16;53.32;100259.88;4974609;28;97358;-78
2023/07/06 02:54:15;;;;;;;21.65;19.70;;;;;;;19.22;53.31;100267.44;4966752;28;98945;-78
2023/07/06 02:56:43;;;;;;;21.92;19.85;;;;;;;19.16;52.84;100253.72;4980518;28;98672;-78
2023/07/06 02:59:10;;;;;;;22.90;20.90;;;;;;;19.13;52.84;100248.63;4968239;28;97271;-78
2023/07/06 03:01:36;;;;;;;21.50;19.77;;;;;;;19.22;52.88;100261.25;4970671;28;97301;-78
2023/07/06 03:04:09;;;;;;;21.00;19.42;;;;;;;19.13;52.71;100249.47;4974356;28;98859;-79
2023/07/06 03:06:35;;;;;;;21.73;19.63;;;;;;;19.26;52.88;100269.88;4975249;28;100229;-78
2023/07/06 03:09:00;;;;;;;21.65;19.63;;;;;;;19.24;52.60;100262.00;4977264;28;96819;-77
2023/07/06 03:11:26;;;;;;;21.67;19.70;;;;;;;19.13;52.19;100246.81;4967337;28;96929;-78
2023/07/06 03:13:51;;;;;;;22.38;20.40;;;;;;;19.32;52.24;100266.81;4973786;28;97772;-78
2023/07/06 03:16:17;;;;;;;21.38;19.45;;;;;;;19.28;52.14;100252.84;4971072;28;100440;-79
2023/07/06 03:18:44;;;;;;;20.70;18.95;;;;;;;19.32;51.90;100242.84;4980439;28;96928;-78
2023/07/06 03:21:11;;;;;;;21.40;19.65;;;;;;;19.40;51.64;100251.97;4969642;28;96959;-78
2023/07/06 03:23:36;;;;;;;21.67;19.30;;;;;;;19.48;51.65;100246.09;4974079;28;98783;-78
2023/07/06 03:26:02;;;;;;;21.75;19.52;;;;;;;19.78;50.95;100259.03;4981624;28;98617;-76
2023/07/06 03:28:28;;;;;;;20.88;19.00;;;;;;;19.93;50.94;100264.19;4973610;28;97176;-78
2023/07/06 03:30:56;;;;;;;20.58;19.13;;;;;;;20.04;50.47;100258.91;4963322;28;96888;-78
2023/07/06 03:33:21;;;;;;;20.92;18.67;;;;;;;20.21;49.90;100266.47;4960411;28;99058;-77
2023/07/06 03:35:47;;;;;;;22.08;20.20;;;;;;;20.24;49.54;100250.25;4977702;28;98603;-78
2023/07/06 03:38:12;;;;;;;20.48;18.88;;;;;;;20.22;49.11;100256.69;4963894;28;96780;-78
2023/07/06 03:40:38;;;;;;;20.38;18.90;;;;;;;20.48;49.05;100281.38;4971371;28;96925;-77
2023/07/06 03:43:06;;;;;;;21.92;19.92;;;;;;;20.31;48.75;100277.31;4971435;28;99111;-77
2023/07/06 03:45:32;;;;;;;19.73;18.33;;;;;;;20.20;48.79;100277.25;4974748;28;98789;-78
2023/07/06 03:47:58;;;;;;;20.00;18.30;;;;;;;20.20;49.17;100306.59;4974419;28;97230;-78
2023/07/06 03:50:24;;;;;;;18.75;17.15;;;;;;;20.12;49.31;100304.47;4966524;28;96929;-78
2023/07/06 03:52:50;;;;;;;20.90;19.10;;;;;;;20.09;49.60;100302.88;4972345;28;98786;-78
2023/07/06 03:55:21;;;;;;;21.50;19.42;;;;;;;20.07;49.79;100298.63;4971071;28;98709;-78
2023/07/06 03:57:49;;;;;;;20.67;18.92;;;;;;;20.13;49.92;100308.84;4972225;28;97240;-78
2023/07/06 04:00:24;;;;;;;20.52;18.67;;;;;;;20.22;50.35;100307.31;4972343;28;96956;-78
2023/07/06 04:02:54;;;;;;;22.83;20.17;;;;;;;20.35;50.34;100311.59;4961771;28;98771;-78
2023/07/06 04:05:32;;;;;;;20.92;19.20;;;;;;;20.42;49.79;100300.47;4962736;28;99980;-78
2023/07/06 04:08:03;;;;;;;21.42;19.48;;;;;;;20.48;49.96;100306.22;4957352;28;98053;-79
2023/07/06 04:10:30;;;;;;;21.08;19.23;;;;;;;20.51;49.59;100305.13;4962762;28;97695;-78
2023/07/06 04:12:56;;;;;;;21.40;19.67;;;;;;;20.59;49.07;100321.41;4958812;28;99306;-78
2023/07/06 04:15:23;;;;;;;21.73;19.70;;;;;;;20.59;48.79;100326.75;4962461;28;98838;-79
2023/07/06 04:17:49;;;;;;;20.77;19.13;;;;;;;20.49;48.80;100331.06;4962128;28;96869;-76
2023/07/06 04:20:19;;;;;;;21.83;19.60;;;;;;;20.34;48.99;100323.25;4970938;28;96993;-78
2023/07/06 04:22:48;;;;;;;21.70;19.80;;;;;;;20.38;49.27;100333.66;4965459;28;99102;-78
2023/07/06 04:25:18;;;;;;;21.23;19.25;;;;;;;20.30;49.73;100332.44;4972020;28;98479;-78
2023/07/06 04:27:44;;;;;;;20.83;18.85;;;;;;;20.31;49.89;100341.28;4976985;28;98103;-78
2023/07/06 04:30:11;;;;;;;20.17;18.30;;;;;;;20.19;49.75;100326.19;4985656;28;98124;-79
2023/07/06 04:32:36;;;;;;;20.63;18.58;;;;;;;20.26;49.61;100343.44;4966679;28;99075;-76
2023/07/06 04:35:03;;;;;;;50.95;21.02;;;;;;;20.29;49.89;100341.38;4964278;28;98569;-78
2023/07/06 04:37:31;;;;;;;37.00;19.88;;;;;;;20.22;50.50;100342.81;4965607;28;97106;-78
2023/07/06 04:39:57;;;;;;;31.73;20.40;;;;;;;20.29;50.55;100351.19;4975876;28;97585;-77
2023/07/06 04:42:27;;;;;;;33.03;19.42;;;;;;;20.18;50.44;100336.00;4971294;28;97911;-78
2023/07/06 04:44:56;;;;;;;20.27;18.17;;;;;;;20.19;50.64;100340.38;4968852;28;98921;-78
2023/07/06 04:47:23;;;;;;;21.90;19.83;;;;;;;20.31;50.69;100350.13;4968235;28;97472;-79
2023/07/06 04:49:50;;;;;;;25.33;19.65;;;;;;;20.28;50.48;100333.50;4971692;28;96847;-82
2023/07/06 04:52:16;;;;;;;52.90;22.50;;;;;;;20.34;50.51;100349.91;4976461;28;98833;-82
2023/07/06 04:54:41;;;;;;;41.22;19.77;;;;;;;20.41;50.56;100350.28;4973438;28;98463;-78
2023/07/06 04:57:09;;;;;;;36.83;20.38;;;;;;;20.39;50.26;100349.56;4976483;28;97185;-78
2023/07/06 04:59:34;;;;;;;27.20;21.20;;;;;;;20.48;50.63;100354.22;4968376;28;97403;-78
2023/07/06 05:02:00;;;;;;;22.00;19.67;;;;;;;20.50;50.04;100360.25;4969847;28;98732;-80
2023/07/06 05:04:25;;;;;;;20.73;19.02;;;;;;;20.54;49.85;100363.59;4962093;28;98570;-80
2023/07/06 05:06:52;;;;;;;21.10;19.40;;;;;;;20.65;49.61;100374.28;4961115;28;96869;-80
2023/07/06 05:09:17;;;;;;;20.77;18.98;;;;;;;20.67;49.19;100367.03;4969895;28;96829;-79
2023/07/06 05:11:43;;;;;;;20.67;18.85;;;;;;;20.72;49.19;100372.88;4967328;28;99225;-79
2023/07/06 05:14:08;;;;;;;21.98;19.58;;;;;;;20.74;49.34;100375.41;4973838;28;98346;-79
2023/07/06 05:16:34;;;;;;;20.38;18.63;;;;;;;20.73;49.31;100377.22;4973066;28;98358;-80
2023/07/06 05:18:59;;;;;;;21.80;19.67;;;;;;;20.80;49.42;100393.63;4966156;28;97572;-79
2023/07/06 05:21:25;;;;;;;22.40;20.42;;;;;;;20.83;49.44;100392.53;4968785;28;99014;-79
2023/07/06 05:23:50;;;;;;;21.15;19.42;;;;;;;20.85;49.53;100398.59;4966944;28;98306;-79
2023/07/06 05:26:17;;;;;;;20.90;18.70;;;;;;;20.86;49.32;100392.31;4969200;28;97850;-79
2023/07/06 05:28:42;;;;;;;21.65;19.75;;;;;;;20.91;48.95;100377.63;4969521;28;97191;-79
2023/07/06 05:31:08;;;;;;;21.67;19.05;;;;;;;20.93;49.23;100378.38;4967904;28;98788;-80
2023/07/06 05:33:33;;;;;;;21.15;19.00;;;;;;;20.99;49.11;100382.41;4971065;28;98464;-80
2023/07/06 05:35:59;;;;;;;20.98;19.05;;;;;;;21.02;49.30;100375.00;4963667;28;97541;-80
2023/07/06 05:38:25;;;;;;;21.20;19.20;;;;;;;20.99;48.55;100371.72;4974843;28;97108;-80
2023/07/06 05:40:50;;;;;;;21.08;19.38;;;;;;;20.98;48.21;100384.22;4972935;28;98765;-80
2023/07/06 05:43:19;;;;;;;21.13;19.10;;;;;;;20.96;48.31;100391.50;4963508;28;98345;-79
2023/07/06 05:45:46;;;;;;;20.42;18.83;;;;;;;21.02;48.23;100391.00;4972151;28;96851;-79
2023/07/06 05:48:11;;;;;;;20.25;18.60;;;;;;;21.07;48.32;100393.34;4980773;28;96974;-79
2023/07/06 05:50:37;;;;;;;20.63;18.67;;;;;;;20.99;47.95;100388.59;4968487;28;99097;-78
2023/07/06 05:53:02;;;;;;;20.63;18.63;;;;;;;21.01;48.12;100392.00;4972144;28;98266;-78
2023/07/06 05:55:29;;;;;;;20.10;18.33;;;;;;;20.93;48.48;100386.38;4960872;28;96735;-78
2023/07/06 05:57:55;;;;;;;20.55;18.75;;;;;;;21.02;48.15;100390.16;4968064;28;97598;-78
2023/07/06 06:00:20;;;;;;;25.65;19.48;;;;;;;21.13;48.49;100386.69;4961875;28;98229;-76
2023/07/06 06:02:46;;;;;;;21.90;19.77;;;;;;;21.08;48.78;100384.34;4969117;28;98648;-78
2023/07/06 06:05:14;;;;;;;21.08;18.98;;;;;;;21.22;49.22;100384.16;4957558;28;97391;-76
2023/07/06 06:07:43;;;;;;;25.10;22.45;;;;;;;21.38;48.94;100386.53;4972070;28;96847;-75
2023/07/06 06:10:13;;;;;;;21.83;19.67;;;;;;;21.61;49.31;100402.53;4972784;28;98615;-76
2023/07/06 06:12:38;;;;;;;22.90;20.15;;;;;;;22.01;48.38;100394.00;4962726;28;98602;-75
2023/07/06 06:15:07;;;;;;;22.55;19.42;;;;;;;22.97;46.49;100385.22;4963281;28;98095;-75
2023/07/06 06:17:34;;;;;;;22.42;18.88;;;;;;;24.28;43.87;100396.09;4955184;28;98001;-75
2023/07/06 06:19:59;;;;;;;22.15;20.17;;;;;;;24.21;43.61;100390.47;4958541;28;99170;-75
2023/07/06 06:22:25;;;;;;;23.45;21.33;;;;;;;24.00;44.12;100378.97;4961840;28;98238;-75
2023/07/06 06:24:50;;;;;;;21.42;19.40;;;;;;;24.17;42.59;100368.44;4974928;28;96732;-75
2023/07/06 06:27:17;;;;;;;20.60;19.10;;;;;;;26.73;38.81;100385.31;4969221;28;96915;-74
2023/07/06 06:29:43;;;;;;;21.15;19.20;;;;;;;27.53;36.93;100389.63;4968109;28;98891;-75
2023/07/06 06:32:10;;;;;;;21.83;20.13;;;;;;;26.01;38.41;100373.66;4971323;28;98224;-75
2023/07/06 06:34:37;;;;;;;22.00;20.15;;;;;;;26.34;37.90;100396.38;4971232;28;96838;-75
2023/07/06 06:37:04;;;;;;;23.73;20.17;;;;;;;26.02;38.30;100386.94;4976409;28;97231;-75
2023/07/06 06:39:33;;;;;;;22.38;20.13;;;;;;;25.64;39.22;100399.56;4973473;28;98748;-74
2023/07/06 06:42:00;;;;;;;21.63;19.92;;;;;;;25.73;38.86;100412.09;4975561;28;98725;-75
2023/07/06 06:44:28;;;;;;;21.75;19.83;;;;;;;25.78;38.46;100416.19;4975180;28;98039;-75
2023/07/06 06:46:56;;;;;;;22.42;20.48;;;;;;;25.97;37.87;100408.91;4975979;28;96849;-73
2023/07/06 06:49:22;;;;;;;21.77;19.83;;;;;;;29.42;33.06;100408.91;4976474;28;98839;-79
2023/07/06 06:51:48;;;;;;;22.13;20.45;;;;;;;36.64;24.88;100400.06;4975108;28;98303;-77
2023/07/06 06:54:14;;;;;;;22.70;20.52;;;;;;;41.51;20.19;100395.13;4975660;28;97279;-77
2023/07/06 06:56:40;;;;;;;22.00;20.00;;;;;;;44.41;17.63;100394.09;4971693;28;96933;-84
2023/07/06 06:59:07;;;;;;;21.83;20.42;;;;;;;45.88;15.88;100386.63;4975066;28;98898;-84
2023/07/06 07:01:33;;;;;;;20.77;19.35;;;;;;;47.55;14.93;100396.63;4975566;28;98265;-83
2023/07/06 07:04:00;;;;;;;21.77;20.05;;;;;;;49.05;13.73;100388.53;4976469;28;98818;-84
2023/07/06 07:06:28;;;;;;;21.17;19.35;;;;;;;50.12;12.88;100391.03;4968213;28;96930;-83
2023/07/06 07:08:54;;;;;;;20.95;19.55;;;;;;;50.91;12.51;100382.13;4970252;28;98671;-83
2023/07/06 07:11:20;;;;;;;21.75;19.75;;;;;;;51.66;12.03;100381.44;4959570;28;97267;-83
2023/07/06 07:13:47;;;;;;;20.80;19.30;;;;;;;51.17;12.38;100382.25;4963530;28;97021;-82
2023/07/06 07:16:14;;;;;;;20.17;18.90;;;;;;;52.36;11.78;100391.53;4963391;28;97920;-86
2023/07/06 07:18:39;;;;;;;20.23;18.77;;;;;;;52.66;11.39;100384.09;4974119;28;98715;-83
2023/07/06 07:21:09;;;;;;;20.27;18.88;;;;;;;53.70;10.73;100387.59;4982064;28;98318;-82
2023/07/06 07:23:42;;;;;;;21.48;19.98;;;;;;;54.34;10.29;100389.25;4976180;28;96972;-82
2023/07/06 07:26:13;;;;;;;19.98;18.67;;;;;;;55.49;9.64;100385.59;4972530;28;98577;-82
2023/07/06 07:28:40;;;;;;;21.15;19.65;;;;;;;56.18;9.16;100375.19;4974285;28;98674;-83
2023/07/06 07:31:07;;;;;;;21.40;19.60;;;;;;;56.60;9.00;100366.34;4965019;28;98452;-77
2023/07/06 07:33:33;;;;;;;20.58;18.98;;;;;;;55.90;8.96;100370.41;4963434;28;97996;-77
2023/07/06 07:36:02;;;;;;;19.58;18.38;;;;;;;56.15;8.55;100367.47;4971785;28;96907;-77
2023/07/06 07:38:27;;;;;;;21.27;19.92;;;;;;;57.31;8.39;100370.97;4985129;28;99293;-77
2023/07/06 07:40:56;;;;;;;20.58;18.90;;;;;;;57.73;7.89;100366.69;4972573;28;98410;-78
2023/07/06 07:43:26;;;;;;;19.42;18.23;;;;;;;58.69;7.89;100357.34;4972551;28;97227;-78
2023/07/06 07:45:57;;;;;;;20.23;19.02;;;;;;;58.21;7.74;100353.97;4970765;28;97284;-77
2023/07/06 07:48:24;;;;;;;20.05;18.77;;;;;;;59.22;7.30;100364.25;4971767;28;99082;-77
2023/07/06 07:50:56;;;;;;;20.40;19.10;;;;;;;59.01;7.09;100362.72;4977430;28;98375;-77
2023/07/06 07:53:24;;;;;;;19.35;18.13;;;;;;;59.62;7.34;100355.16;4951688;28;97295;-77
2023/07/06 07:55:50;;;;;;;18.80;17.58;;;;;;;60.41;7.16;100350.41;4969535;28;97130;-77
2023/07/06 07:58:16;;;;;;;20.60;19.33;;;;;;;60.73;7.27;100347.09;4957476;28;98555;-77
2023/07/06 08:00:47;;;;;;;21.85;20.25;;;;;;;60.13;6.50;100337.59;4959198;28;98774;-77
2023/07/06 08:03:13;;;;;;;22.13;20.52;;;;;;;60.79;6.70;100348.38;4966719;28;97282;-78
2023/07/06 08:05:39;;;;;;;21.23;19.75;;;;;;;60.29;6.56;100339.38;4969314;28;97376;-78
2023/07/06 08:08:05;;;;;;;22.20;20.80;;;;;;;60.94;6.94;100346.44;4969638;28;98603;-79
2023/07/06 08:10:40;;;;;;;21.93;20.53;;;;;;;60.88;6.39;100346.81;4969972;28;98740;-79
2023/07/06 08:13:09;;;;;;;21.67;20.38;;;;;;;61.40;5.84;100341.09;4963285;28;97190;-78
2023/07/06 08:15:38;;;;;;;23.88;22.30;;;;;;;61.80;6.00;100342.09;4971205;28;97724;-78
2023/07/06 08:18:06;;;;;;;22.48;20.90;;;;;;;61.84;6.19;100342.91;4969098;28;98818;-78
2023/07/06 08:20:32;;;;;;;21.50;20.23;;;;;;;61.88;6.46;100338.06;4967282;28;98546;-78
2023/07/06 08:23:01;;;;;;;23.20;21.60;;;;;;;61.22;6.27;100335.31;4967805;28;98351;-78
2023/07/06 08:25:42;;;;;;;21.23;19.92;;;;;;;61.20;6.19;100343.38;4974735;28;97428;-82
2023/07/06 08:28:09;;;;;;;26.23;21.05;;;;;;;61.31;6.79;100340.66;4974444;28;98707;-79
2023/07/06 08:30:37;;;;;;;21.33;19.92;;;;;;;60.66;6.63;100336.47;4970779;28;98453;-77
2023/07/06 08:33:02;;;;;;;;;;;;;;;57.90;6.99;100340.06;4976680;28;97114;-73
2023/07/06 08:35:29;;;;;;;22.52;21.13;;;;;;;55.02;9.00;100339.09;4959308;28;97167;-78
2023/07/06 08:37:56;;;;;;;20.35;18.90;;;;;;;51.63;11.02;100338.13;4965826;28;99015;-76
2023/07/06 08:40:25;;;;;;;19.20;18.00;;;;;;;49.18;13.54;100353.44;4963931;28;99018;-75
2023/07/06 08:42:51;;;;;;;20.33;18.80;;;;;;;46.54;12.49;100349.31;4966785;28;96836;-76
2023/07/06 08:45:22;;;;;;;20.58;18.38;;;;;;;44.90;16.08;100358.38;4971662;28;96838;-76
2023/07/06 08:47:48;;;;;;;18.48;17.27;;;;;;;43.59;15.63;100353.19;4987310;28;98928;-74
2023/07/06 08:50:20;;;;;;;20.13;18.83;;;;;;;42.44;17.59;100361.22;4972962;28;98748;-74
2023/07/06 08:52:46;;;;;;;20.50;18.95;;;;;;;41.33;16.93;100359.63;4968614;28;96934;-75
2023/07/06 08:55:13;;;;;;;20.05;18.75;;;;;;;40.54;18.28;100366.06;4973290;28;96844;-74
2023/07/06 08:57:39;;;;;;;20.88;19.38;;;;;;;39.71;20.08;100372.94;4971035;28;98652;-74
2023/07/06 09:00:21;;;;;;;20.92;19.30;;;;;;;39.05;19.68;100367.66;4972358;28;98421;-75
2023/07/06 09:02:49;;;;;;;20.92;19.52;;;;;;;38.35;19.60;100360.13;4972469;28;97097;-74
2023/07/06 09:05:15;;;;;;;21.02;19.40;;;;;;;37.56;20.39;100359.28;4971404;28;96846;-74
2023/07/06 09:07:43;;;;;;;21.35;19.83;;;;;;;37.03;19.93;100360.66;4966778;28;99309;-73
2023/07/06 09:10:29;;;;;;;20.83;19.40;;;;;;;36.61;19.90;100352.13;4966534;28;98282;-74
2023/07/06 09:12:57;;;;;;;20.75;19.00;;;;;;;36.24;21.00;100367.50;4972529;28;97293;-73
2023/07/06 09:15:27;;;;;;;20.83;19.35;;;;;;;35.87;20.78;100369.13;4972458;28;98185;-73
2023/07/06 09:17:57;;;;;;;20.25;18.67;;;;;;;35.06;20.55;100371.22;4969432;28;99248;-73
2023/07/06 09:20:26;;;;;;;19.50;18.25;;;;;;;33.87;20.93;100373.69;4969449;28;98833;-74
2023/07/06 09:22:52;;;;;;;21.27;19.70;;;;;;;33.55;21.52;100374.16;4966281;28;97727;-73
2023/07/06 09:25:26;;;;;;;20.02;18.48;;;;;;;33.87;22.43;100379.13;4967250;28;97114;-74
2023/07/06 09:27:56;;;;;;;19.83;18.30;;;;;;;34.24;22.96;100372.38;4964144;28;98868;-73
2023/07/06 09:30:30;;;;;;;20.17;18.88;;;;;;;34.35;22.55;100381.81;4972658;28;98438;-73
2023/07/06 09:33:18;;;;;;;19.23;17.90;;;;;;;34.37;22.77;100377.84;4969068;28;96770;-74
2023/07/06 09:35:44;;;;;;;19.73;18.48;;;;;;;34.27;22.32;100377.41;4973504;28;97087;-75
2023/07/06 09:38:13;;;;;;;18.88;17.58;;;;;;;33.99;21.27;100377.50;4975267;28;98911;-74
2023/07/06 09:40:40;;;;;;;20.13;18.48;;;;;;;34.09;22.95;100375.25;4977006;28;98584;-84
2023/07/06 09:43:37;;;;;;;19.67;18.30;;;;;;;34.02;22.88;100375.19;4976475;28;96757;-83
2023/07/06 09:46:03;;;;;;;19.35;18.02;;;;;;;33.84;22.39;100382.25;4979175;28;96979;-83
2023/07/06 09:48:31;;;;;;;19.10;17.90;;;;;;;33.72;23.06;100380.13;4966412;28;99055;-80
2023/07/06 09:51:19;;;;;;;18.63;17.33;;;;;;;33.26;21.71;100394.25;4984311;28;98483;-82
2023/07/06 09:53:52;;;;;;;19.50;17.98;;;;;;;32.98;23.31;100394.22;4974883;28;96878;-81
2023/07/06 09:56:17;;;;;;;19.48;18.02;;;;;;;32.75;22.53;100399.88;4991845;28;96885;-82
2023/07/06 09:58:45;;;;;;;19.67;18.38;;;;;;;32.72;23.27;100370.38;4978408;28;99086;-81
2023/07/06 10:01:37;;;;;;;19.67;18.35;;;;;;;32.81;23.38;100395.53;4968910;28;98279;-82
2023/07/06 10:04:40;;;;;;;19.25;17.95;;;;;;;32.79;23.76;100394.91;4987817;28;97245;-76
2023/07/06 10:07:09;;;;;;;21.02;19.20;;;;;;;32.44;23.25;100389.31;4975636;28;96971;-78
2023/07/06 10:09:39;;;;;;;20.08;18.50;;;;;;;31.01;24.09;100386.91;4973655;28;98641;-80
2023/07/06 10:12:33;;;;;;;19.88;18.48;;;;;;;30.90;24.24;100391.78;4966351;28;98713;-79
2023/07/06 10:15:00;;;;;;;21.52;19.50;;;;;;;31.49;24.55;100382.91;4966150;28;98119;-79
2023/07/06 10:17:37;;;;;;;20.40;18.88;;;;;;;31.58;24.33;100391.78;4996439;28;96969;-80
2023/07/06 10:20:13;;;;;;;19.38;17.98;;;;;;;31.70;23.79;100395.69;4968676;28;98721;-81
2023/07/06 10:23:04;;;;;;;19.52;18.25;;;;;;;31.65;23.63;100389.16;4972691;28;98452;-80
2023/07/06 10:25:35;;;;;;;19.25;18.05;;;;;;;31.45;24.57;100387.03;4972366;28;96747;-80
2023/07/06 10:28:11;;;;;;;19.67;18.25;;;;;;;31.43;24.64;100390.94;4975648;28;96715;-78
2023/07/06 10:30:41;;;;;;;19.75;18.25;;;;;;;31.45;24.23;100391.63;4982496;28;98881;-77
2023/07/06 10:33:13;;;;;;;19.88;18.48;;;;;;;31.65;25.04;100387.31;4973942;28;98866;-81
2023/07/06 10:35:45;;;;;;;20.25;18.77;;;;;;;31.64;25.91;100392.91;4976174;28;96744;-88
2023/07/06 10:38:11;;;;;;;19.30;18.00;;;;;;;31.52;25.65;100392.53;4975780;28;96836;-87
2023/07/06 10:40:37;;;;;;;19.30;18.10;;;;;;;31.45;27.01;100387.03;4991824;28;98053;-86
2023/07/06 10:43:29;;;;;;;20.48;18.83;;;;;;;31.38;27.58;100382.53;4982381;28;98731;-85
2023/07/06 10:45:56;;;;;;;19.83;18.52;;;;;;;31.35;26.84;100386.44;4966835;28;96923;-81
2023/07/06 10:48:24;;;;;;;20.55;18.95;;;;;;;31.37;25.09;100386.28;4970315;28;97046;-89
2023/07/06 10:50:50;;;;;;;22.33;20.52;;;;;;;30.57;23.90;100383.00;4976929;28;98627;-82
2023/07/06 10:53:34;;;;;;;20.50;18.90;;;;;;;30.58;23.79;100387.44;4970392;28;98324;-84
2023/07/06 10:56:02;;;;;;;19.45;18.05;;;;;;;30.10;24.72;100391.25;4972606;28;96605;-79
2023/07/06 10:58:30;;;;;;;19.02;17.83;;;;;;;29.54;24.75;100384.03;4972108;28;97195;-77
2023/07/06 11:00:57;;;;;;;18.73;17.45;;;;;;;29.28;24.83;100384.25;4974671;28;98751;-77
2023/07/06 11:03:27;;;;;;;19.52;17.90;;;;;;;29.36;26.42;100394.22;4989752;28;98325;-76
2023/07/06 11:06:10;;;;;;;19.43;18.13;;;;;;;29.69;27.70;100392.28;4959728;28;97076;-76
2023/07/06 11:09:10;;;;;;;23.77;22.13;;;;;;;29.92;26.63;100394.22;4967095;28;96818;-77
2023/07/06 11:11:42;;;;;;;27.80;25.98;;;;;;;30.01;26.66;100387.75;4958772;28;99045;-77
2023/07/06 11:14:48;;;;;;;18.65;17.00;;;;;;;30.12;25.47;100390.06;4972759;28;98698;-77
2023/07/06 11:17:22;;;;;;;22.77;20.92;;;;;;;30.29;26.41;100390.84;4971537;28;96998;-76
2023/07/06 11:19:53;;;;;;;27.73;25.52;;;;;;;30.31;26.14;100388.81;4969732;28;97008;-77
2023/07/06 11:22:22;;;;;;;22.75;20.75;;;;;;;30.31;26.07;100385.25;4969301;28;98749;-77